createdAt,value
2023-04-14T00:00:20.616Z,51.05
2023-04-14T00:02:49.121Z,51.34
2023-04-14T00:05:17.643Z,51.13
2023-04-14T00:07:46.962Z,51.50
2023-04-14T00:10:15.554Z,51.63
2023-04-14T00:12:43.379Z,51.67
2023-04-14T00:15:12.360Z,51.56
2023-04-14T00:17:40.735Z,51.79
2023-04-14T00:20:09.840Z,51.76
2023-04-14T00:22:37.793Z,51.83
2023-04-14T00:25:07.767Z,51.70
2023-04-14T00:27:35.820Z,51.65
2023-04-14T00:30:04.076Z,51.92
2023-04-14T00:32:34.296Z,51.92
2023-04-14T00:35:03.633Z,51.80
2023-04-14T00:37:31.686Z,52.33
2023-04-14T00:40:00.649Z,51.98
2023-04-14T00:42:29.959Z,51.74
2023-04-14T00:44:58.065Z,51.34
2023-04-14T00:47:27.819Z,51.11
2023-04-14T00:49:56.277Z,51.59
2023-04-14T00:52:26.605Z,51.63
2023-04-14T00:54:56.021Z,51.65
2023-04-14T00:57:24.194Z,51.52
2023-04-14T00:59:54.427Z,51.34
2023-04-14T01:02:23.055Z,51.53
2023-04-14T01:04:54.758Z,51.31
2023-04-14T01:07:24.717Z,51.32
2023-04-14T01:09:54.099Z,51.20
2023-04-14T01:12:32.683Z,51.16
2023-04-14T01:15:12.495Z,51.56
2023-04-14T01:17:46.946Z,51.53
2023-04-14T01:20:24.239Z,51.71
2023-04-14T01:22:59.023Z,51.78
2023-04-14T01:25:55.000Z,52.85
2023-04-14T01:28:41.057Z,53.05
2023-04-14T01:31:30.724Z,53.13
2023-04-14T01:34:04.822Z,53.48
2023-04-14T01:36:39.142Z,52.22
2023-04-14T01:39:10.010Z,51.96
2023-04-14T01:41:43.211Z,51.97
2023-04-14T01:44:13.738Z,51.93
2023-04-14T01:46:44.982Z,51.75
2023-04-14T01:49:13.591Z,51.97
2023-04-14T01:51:44.280Z,51.83
2023-04-14T01:54:14.245Z,51.96
2023-04-14T01:56:44.743Z,51.89
2023-04-14T01:59:13.336Z,52.21
2023-04-14T02:01:44.000Z,51.92
2023-04-14T02:04:13.610Z,52.47
2023-04-14T02:06:42.017Z,52.38
2023-04-14T02:09:13.151Z,52.47
2023-04-14T02:11:43.297Z,52.42
2023-04-14T02:14:13.134Z,52.34
2023-04-14T02:16:41.790Z,52.46
2023-04-14T02:19:11.379Z,52.41
2023-04-14T02:21:41.366Z,52.62
2023-04-14T02:24:10.512Z,52.54
2023-04-14T02:26:43.955Z,52.26
2023-04-14T02:29:15.433Z,52.57
2023-04-14T02:31:47.243Z,52.86
2023-04-14T02:34:23.819Z,52.38
2023-04-14T02:36:56.419Z,52.75
2023-04-14T02:39:32.055Z,52.43
2023-04-14T02:42:05.965Z,52.90
2023-04-14T02:44:38.334Z,52.43
2023-04-14T02:47:10.484Z,52.17
2023-04-14T02:49:44.325Z,52.14
2023-04-14T02:52:15.410Z,52.72
2023-04-14T02:54:44.465Z,52.91
2023-04-14T02:57:13.181Z,52.60
2023-04-14T02:59:43.938Z,52.85
2023-04-14T03:02:13.422Z,52.88
2023-04-14T03:04:43.364Z,53.81
2023-04-14T03:07:16.225Z,53.13
2023-04-14T03:09:45.703Z,53.12
2023-04-14T03:12:16.639Z,52.93
2023-04-14T03:14:45.934Z,52.78
2023-04-14T03:17:17.513Z,53.05
2023-04-14T03:19:48.711Z,52.89
2023-04-14T03:22:17.937Z,53.22
2023-04-14T03:24:47.099Z,53.25
2023-04-14T03:27:21.980Z,53.12
2023-04-14T03:29:55.042Z,52.91
2023-04-14T03:32:26.122Z,53.55
2023-04-14T03:35:01.356Z,53.26
2023-04-14T03:37:32.682Z,53.32
2023-04-14T03:40:05.165Z,52.99
2023-04-14T03:42:35.770Z,53.20
2023-04-14T03:45:05.468Z,53.55
2023-04-14T03:47:34.673Z,53.42
2023-04-14T03:50:09.011Z,53.79
2023-04-14T03:52:41.264Z,54.53
2023-04-14T03:55:13.617Z,54.21
2023-04-14T03:57:44.507Z,54.39
2023-04-14T04:00:15.924Z,54.51
2023-04-14T04:02:49.003Z,54.27
2023-04-14T04:05:19.001Z,55.37
2023-04-14T04:07:47.981Z,54.33
2023-04-14T04:10:17.600Z,54.34
2023-04-14T04:12:48.525Z,54.03
2023-04-14T04:15:17.473Z,54.09
2023-04-14T04:17:48.326Z,54.66
2023-04-14T04:20:20.207Z,54.60
2023-04-14T04:22:51.763Z,54.26
2023-04-14T04:25:21.044Z,54.58
2023-04-14T04:27:51.089Z,55.08
2023-04-14T04:30:20.515Z,54.95
2023-04-14T04:32:49.096Z,54.77
2023-04-14T04:35:19.438Z,54.72
2023-04-14T04:37:49.059Z,54.91
2023-04-14T04:40:17.255Z,55.06
2023-04-14T04:42:45.741Z,55.05
2023-04-14T04:45:14.387Z,54.82
2023-04-14T04:47:42.495Z,54.90
2023-04-14T04:50:10.918Z,54.95
2023-04-14T04:52:40.520Z,54.92
2023-04-14T04:55:08.706Z,55.08
2023-04-14T04:57:36.694Z,54.93
2023-04-14T05:00:05.767Z,55.06
2023-04-14T05:02:33.702Z,55.05
2023-04-14T05:05:01.823Z,54.94
2023-04-14T05:07:30.049Z,54.81
2023-04-14T05:09:59.278Z,54.86
2023-04-14T05:12:27.256Z,54.90
2023-04-14T05:14:55.480Z,55.13
2023-04-14T05:17:23.890Z,55.13
2023-04-14T05:19:51.808Z,56.00
2023-04-14T05:22:20.014Z,55.98
2023-04-14T05:24:50.494Z,55.41
2023-04-14T05:27:21.859Z,56.33
2023-04-14T05:29:50.010Z,55.57
2023-04-14T05:32:18.068Z,56.13
2023-04-14T05:34:46.161Z,55.62
2023-04-14T05:37:14.410Z,55.57
2023-04-14T05:39:42.404Z,55.36
2023-04-14T05:42:10.512Z,56.19
2023-04-14T05:44:40.216Z,56.15
2023-04-14T05:47:08.119Z,55.80
2023-04-14T05:49:36.100Z,55.71
2023-04-14T05:52:04.511Z,55.79
2023-04-14T05:54:35.522Z,55.78
2023-04-14T05:57:03.506Z,56.03
2023-04-14T05:59:31.930Z,55.47
2023-04-14T06:02:04.815Z,55.26
2023-04-14T06:04:33.436Z,55.21
2023-04-14T06:07:02.870Z,55.59
2023-04-14T06:09:31.617Z,55.42
2023-04-14T06:11:59.987Z,55.59
2023-04-14T06:14:27.888Z,56.09
2023-04-14T06:16:55.910Z,55.62
2023-04-14T06:19:25.545Z,55.40
2023-04-14T06:21:53.760Z,56.07
2023-04-14T06:24:21.744Z,55.42
2023-04-14T06:26:49.931Z,55.41
2023-04-14T06:29:17.843Z,55.13
2023-04-14T06:31:45.872Z,55.06
2023-04-14T06:34:14.228Z,55.18
2023-04-14T06:36:43.536Z,55.25
2023-04-14T06:39:12.317Z,55.95
2023-04-14T06:41:40.725Z,55.98
2023-04-14T06:44:08.790Z,56.08
2023-04-14T06:46:38.017Z,57.10
2023-04-14T06:49:07.277Z,56.95
2023-04-14T06:51:35.507Z,56.85
2023-04-14T06:54:05.320Z,56.70
2023-04-14T06:56:33.914Z,57.07
2023-04-14T06:59:02.138Z,57.45
2023-04-14T07:01:48.805Z,57.03
2023-04-14T07:04:36.586Z,56.76
2023-04-14T07:07:04.626Z,57.64
2023-04-14T07:09:35.554Z,59.07
2023-04-14T07:12:03.644Z,58.33
2023-04-14T07:14:32.925Z,57.38
2023-04-14T07:17:01.161Z,60.07
2023-04-14T07:19:29.136Z,58.68
2023-04-14T07:21:57.123Z,58.99
2023-04-14T07:24:25.491Z,58.21
2023-04-14T07:26:54.824Z,57.32
2023-04-14T07:29:22.776Z,57.25
2023-04-14T07:31:51.165Z,57.58
2023-04-14T07:34:20.320Z,58.04
2023-04-14T07:36:48.891Z,57.89
2023-04-14T07:39:17.213Z,58.24
2023-04-14T07:41:45.140Z,58.43
2023-04-14T07:44:14.804Z,57.86
2023-04-14T07:46:43.078Z,57.70
2023-04-14T07:49:11.275Z,57.93
2023-04-14T07:51:39.255Z,57.33
2023-04-14T07:54:07.582Z,57.18
2023-04-14T07:56:35.478Z,58.52
2023-04-14T07:59:03.608Z,57.81
2023-04-14T08:01:33.450Z,57.42
2023-04-14T08:04:01.965Z,57.17
2023-04-14T08:06:30.124Z,56.81
2023-04-14T08:08:58.299Z,56.85
2023-04-14T08:11:26.689Z,57.14
2023-04-14T08:13:54.662Z,56.69
2023-04-14T08:16:22.952Z,56.71
2023-04-14T08:18:53.564Z,56.34
2023-04-14T08:21:23.159Z,56.59
2023-04-14T08:23:52.454Z,56.72
2023-04-14T08:26:21.294Z,56.58
2023-04-14T08:28:49.291Z,56.84
2023-04-14T08:31:17.624Z,56.94
2023-04-14T08:33:45.865Z,56.71
2023-04-14T08:36:15.532Z,56.58
2023-04-14T08:38:43.825Z,56.70
2023-04-14T08:41:14.361Z,56.43
2023-04-14T08:43:42.398Z,56.63
2023-04-14T08:46:12.510Z,56.21
2023-04-14T08:48:41.897Z,56.10
2023-04-14T08:51:19.771Z,56.03
2023-04-14T08:53:49.802Z,55.92
2023-04-14T08:56:19.721Z,55.64
2023-04-14T08:58:49.162Z,55.40
2023-04-14T09:01:19.219Z,55.17
2023-04-14T09:03:48.901Z,55.44
2023-04-14T09:06:18.914Z,55.29
2023-04-14T09:08:47.333Z,55.50
2023-04-14T09:11:17.353Z,55.30
2023-04-14T09:13:45.739Z,55.18
2023-04-14T09:16:14.150Z,54.90
2023-04-14T09:18:42.318Z,54.88
2023-04-14T09:21:49.986Z,54.61
2023-04-14T09:24:03.264Z,54.78
2023-04-14T09:26:31.336Z,54.69
2023-04-14T09:28:59.941Z,54.00
2023-04-14T09:31:28.621Z,54.08
2023-04-14T09:33:57.250Z,53.98
2023-04-14T09:36:27.854Z,53.34
2023-04-14T09:38:56.572Z,53.54
2023-04-14T09:41:27.620Z,53.64
2023-04-14T09:43:56.149Z,53.05
2023-04-14T09:46:24.109Z,52.99
2023-04-14T09:48:53.884Z,53.39
2023-04-14T09:51:23.411Z,53.75
2023-04-14T09:53:54.102Z,54.20
2023-04-14T09:56:27.083Z,54.53
2023-04-14T09:59:00.896Z,54.21
2023-04-14T10:01:32.152Z,54.43
2023-04-14T10:04:03.292Z,54.65
2023-04-14T10:06:32.290Z,54.85
2023-04-14T10:09:01.116Z,55.31
2023-04-14T10:11:32.305Z,55.23
2023-04-14T10:14:03.894Z,55.34
2023-04-14T10:16:32.783Z,55.56
2023-04-14T10:19:01.829Z,55.85
2023-04-14T10:21:30.426Z,55.95
2023-04-14T10:23:58.619Z,55.72
2023-04-14T10:26:27.723Z,55.40
2023-04-14T10:28:57.123Z,55.31
2023-04-14T10:31:31.925Z,54.95
2023-04-14T10:34:07.574Z,54.93
2023-04-14T10:36:36.910Z,54.84
2023-04-14T10:39:06.871Z,54.71
2023-04-14T10:41:46.857Z,54.66
2023-04-14T10:44:25.593Z,54.77
2023-04-14T10:46:56.615Z,54.20
2023-04-14T10:49:33.053Z,53.64
2023-04-14T10:52:03.384Z,52.96
2023-04-14T10:54:49.823Z,53.94
2023-04-14T10:57:19.307Z,54.79
2023-04-14T10:59:48.663Z,53.28
2023-04-14T11:02:26.357Z,53.34
2023-04-14T11:05:04.089Z,53.33
2023-04-14T11:07:38.998Z,52.83
2023-04-14T11:10:27.947Z,53.11
2023-04-14T11:12:57.420Z,51.68
2023-04-14T11:15:25.897Z,52.13
2023-04-14T11:17:55.339Z,52.69
2023-04-14T11:20:25.092Z,52.94
2023-04-14T11:22:54.831Z,52.61
2023-04-14T11:25:24.804Z,52.75
2023-04-14T11:27:54.309Z,52.10
2023-04-14T11:30:22.868Z,51.72
2023-04-14T11:32:53.415Z,51.93
2023-04-14T11:35:26.140Z,51.42
2023-04-14T11:37:58.145Z,51.98
2023-04-14T11:40:28.347Z,52.17
2023-04-14T11:42:57.953Z,52.04
2023-04-14T11:45:28.977Z,51.08
2023-04-14T11:47:58.843Z,51.86
2023-04-14T11:50:33.330Z,52.71
2023-04-14T11:53:03.051Z,52.23
2023-04-14T11:55:31.549Z,53.24
2023-04-14T11:58:00.364Z,53.41
2023-04-14T12:00:28.981Z,53.24
2023-04-14T12:02:58.622Z,53.16
2023-04-14T12:05:31.244Z,53.45
2023-04-14T12:08:00.920Z,52.82
2023-04-14T12:10:29.258Z,52.72
2023-04-14T12:13:02.406Z,52.16
2023-04-14T12:15:32.298Z,50.81
2023-04-14T12:18:01.169Z,51.94
2023-04-14T12:20:31.439Z,51.46
2023-04-14T12:23:03.721Z,51.58
2023-04-14T12:25:35.254Z,51.19
2023-04-14T12:28:06.585Z,51.33
2023-04-14T12:30:35.868Z,50.55
2023-04-14T12:33:10.627Z,52.12
2023-04-14T12:35:41.591Z,54.52
2023-04-14T12:38:12.629Z,54.98
2023-04-14T12:40:42.692Z,55.40
2023-04-14T12:43:11.505Z,56.48
2023-04-14T12:45:43.765Z,56.23
2023-04-14T12:48:13.499Z,57.05
2023-04-14T12:50:42.918Z,55.94
2023-04-14T12:53:24.631Z,54.74
2023-04-14T12:56:05.563Z,54.40
2023-04-14T12:58:34.208Z,53.86
2023-04-14T13:01:02.500Z,53.51
2023-04-14T13:03:41.803Z,53.93
2023-04-14T13:06:16.370Z,52.15
2023-04-14T13:08:46.236Z,52.93
2023-04-14T13:11:14.736Z,52.73
2023-04-14T13:13:44.334Z,51.32
2023-04-14T13:16:16.220Z,51.10
2023-04-14T13:18:46.539Z,52.16
2023-04-14T13:21:17.191Z,52.07
2023-04-14T13:23:45.662Z,52.13
2023-04-14T13:26:13.838Z,51.66
2023-04-14T13:28:41.861Z,52.19
2023-04-14T13:31:11.658Z,51.75
2023-04-14T13:33:39.902Z,51.13
2023-04-14T13:36:08.538Z,51.20
2023-04-14T13:38:38.152Z,50.91
2023-04-14T13:41:06.333Z,51.31
2023-04-14T13:43:34.903Z,51.32
2023-04-14T13:46:03.236Z,51.51
2023-04-14T13:48:32.272Z,51.88
2023-04-14T13:51:00.208Z,51.46
2023-04-14T13:53:28.468Z,51.17
2023-04-14T13:55:58.206Z,51.75
2023-04-14T13:58:26.901Z,51.41
2023-04-14T14:00:56.254Z,51.11
2023-04-14T14:03:25.215Z,50.90
2023-04-14T14:05:53.536Z,50.60
2023-04-14T14:08:21.523Z,50.88
2023-04-14T14:10:49.765Z,51.48
2023-04-14T14:13:20.527Z,51.19
2023-04-14T14:15:48.985Z,51.08
2023-04-14T14:18:17.652Z,50.60
2023-04-14T14:20:45.601Z,50.46
2023-04-14T14:23:13.627Z,50.91
2023-04-14T14:25:41.927Z,49.17
2023-04-14T14:28:09.942Z,49.90
2023-04-14T14:30:39.526Z,49.72
2023-04-14T14:33:07.763Z,49.06
2023-04-14T14:35:35.857Z,49.54
2023-04-14T14:38:03.825Z,50.27
2023-04-14T14:40:32.220Z,49.59
2023-04-14T14:43:01.046Z,49.56
2023-04-14T14:45:31.376Z,49.55
2023-04-14T14:48:03.103Z,49.32
2023-04-14T14:50:31.243Z,49.58
2023-04-14T14:52:59.164Z,49.50
2023-04-14T14:55:27.534Z,49.55
2023-04-14T14:57:55.705Z,48.69
2023-04-14T15:00:23.750Z,49.20
2023-04-14T15:02:53.144Z,47.50
2023-04-14T15:05:22.771Z,48.45
2023-04-14T15:07:50.978Z,47.31
2023-04-14T15:10:19.460Z,47.99
2023-04-14T15:12:47.593Z,49.41
2023-04-14T15:15:15.823Z,49.49
2023-04-14T15:17:44.250Z,48.82
2023-04-14T15:20:13.277Z,48.05
2023-04-14T15:22:42.698Z,48.50
2023-04-14T15:25:11.677Z,49.17
2023-04-14T15:27:39.634Z,48.36
2023-04-14T15:30:08.870Z,48.65
2023-04-14T15:32:37.297Z,49.19
2023-04-14T15:35:06.060Z,49.30
2023-04-14T15:37:35.256Z,48.54
2023-04-14T15:40:05.319Z,48.15
2023-04-14T15:42:33.302Z,49.00
2023-04-14T15:45:01.282Z,48.94
2023-04-14T15:47:29.536Z,48.73
2023-04-14T15:50:09.339Z,48.83
2023-04-14T15:52:39.428Z,49.25
2023-04-14T15:55:10.697Z,50.31
2023-04-14T15:57:38.981Z,51.10
2023-04-14T16:00:08.315Z,50.81
2023-04-14T16:02:42.029Z,50.45
2023-04-14T16:05:10.915Z,50.41
2023-04-14T16:07:40.054Z,50.67
2023-04-14T16:10:10.070Z,50.83
2023-04-14T16:12:38.667Z,51.47
2023-04-14T16:15:08.355Z,51.29
2023-04-14T16:17:36.534Z,52.37
2023-04-14T16:20:05.546Z,52.51
2023-04-14T16:22:34.158Z,51.47
2023-04-14T16:25:04.372Z,51.57
2023-04-14T16:27:34.218Z,51.62
2023-04-14T16:30:02.702Z,52.49
2023-04-14T16:32:31.189Z,52.50
2023-04-14T16:34:59.580Z,52.48
2023-04-14T16:37:27.856Z,52.43
2023-04-14T16:39:56.529Z,52.95
2023-04-14T16:42:26.346Z,53.04
2023-04-14T16:44:56.364Z,53.05
2023-04-14T16:47:25.013Z,52.08
2023-04-14T16:49:53.027Z,52.52
2023-04-14T16:52:21.197Z,51.66
2023-04-14T16:54:50.432Z,52.04
2023-04-14T16:57:18.505Z,52.22
2023-04-14T16:59:48.111Z,52.04
2023-04-14T17:02:17.779Z,52.55
2023-04-14T17:04:46.020Z,53.45
2023-04-14T17:07:14.182Z,53.26
2023-04-14T17:09:42.792Z,52.74
2023-04-14T17:12:10.781Z,53.29
2023-04-14T17:14:38.726Z,53.94
2023-04-14T17:17:07.217Z,53.87
2023-04-14T17:19:36.663Z,52.82
2023-04-14T17:22:04.654Z,54.25
2023-04-14T17:24:33.736Z,54.07
2023-04-14T17:27:02.210Z,52.79
2023-04-14T17:29:31.144Z,52.44
2023-04-14T17:32:01.116Z,52.32
2023-04-14T17:34:29.596Z,53.65
2023-04-14T17:37:00.110Z,53.15
2023-04-14T17:39:28.366Z,53.31
2023-04-14T17:41:57.947Z,53.30
2023-04-14T17:44:32.546Z,53.44
2023-04-14T17:47:03.032Z,54.63
2023-04-14T17:49:31.562Z,55.84
2023-04-14T17:52:01.276Z,55.89
2023-04-14T17:54:30.527Z,56.25
2023-04-14T17:56:58.505Z,55.31
2023-04-14T17:59:27.142Z,56.40
2023-04-14T18:01:55.694Z,55.14
2023-04-14T18:04:24.081Z,54.59
2023-04-14T18:06:52.137Z,56.11
2023-04-14T18:09:21.549Z,55.25
2023-04-14T18:11:49.812Z,56.47
2023-04-14T18:14:17.723Z,56.10
2023-04-14T18:16:45.760Z,56.77
2023-04-14T18:19:14.629Z,55.70
2023-04-14T18:21:44.865Z,55.99
2023-04-14T18:26:46.012Z,56.44
2023-04-14T18:29:14.308Z,56.75
2023-04-14T18:31:42.581Z,57.10
2023-04-14T18:34:11.755Z,57.22
2023-04-14T18:36:40.495Z,57.25
2023-04-14T18:39:08.523Z,56.67
2023-04-14T18:41:36.573Z,56.26
2023-04-14T18:44:07.545Z,58.05
2023-04-14T18:46:37.776Z,57.44
2023-04-14T18:49:06.141Z,57.41
2023-04-14T18:51:34.111Z,57.46
2023-04-14T18:54:02.296Z,57.16
2023-04-14T18:56:30.765Z,58.10
2023-04-14T18:58:59.834Z,58.26
2023-04-14T19:01:29.578Z,57.58
2023-04-14T19:03:58.036Z,57.36
2023-04-14T19:06:26.346Z,57.71
2023-04-14T19:08:54.481Z,56.92
2023-04-14T19:11:22.711Z,56.92
2023-04-14T19:13:50.680Z,56.83
2023-04-14T19:16:18.790Z,58.33
2023-04-14T19:18:48.303Z,57.21
2023-04-14T19:21:16.340Z,57.07
2023-04-14T19:23:46.909Z,56.82
2023-04-14T19:26:15.702Z,56.98
2023-04-14T19:28:45.736Z,56.96
2023-04-14T19:31:13.677Z,56.62
2023-04-14T19:33:41.987Z,56.75
2023-04-14T19:36:15.427Z,56.41
2023-04-14T19:38:44.178Z,57.42
2023-04-14T19:41:12.403Z,56.51
2023-04-14T19:43:40.382Z,56.93
2023-04-14T19:46:10.445Z,57.57
2023-04-14T19:48:39.046Z,57.21
2023-04-14T19:51:07.005Z,57.19
2023-04-14T19:53:36.607Z,58.12
2023-04-14T19:56:05.643Z,57.92
2023-04-14T19:58:34.007Z,57.61
2023-04-14T20:01:02.207Z,57.48
2023-04-14T20:03:33.086Z,57.90
2023-04-14T20:06:03.094Z,57.82
2023-04-14T20:08:32.314Z,57.90
2023-04-14T20:11:01.942Z,58.53
2023-04-14T20:13:34.781Z,58.05
2023-04-14T20:16:02.963Z,58.21
2023-04-14T20:18:31.065Z,58.53
2023-04-14T20:20:59.691Z,58.78
2023-04-14T20:23:28.084Z,58.53
2023-04-14T20:25:56.763Z,58.54
2023-04-14T20:28:26.662Z,59.17
2023-04-14T20:30:55.878Z,58.95
2023-04-14T20:33:24.567Z,58.89
2023-04-14T20:35:54.065Z,59.16
2023-04-14T20:38:24.651Z,58.67
2023-04-14T20:40:54.569Z,58.74
2023-04-14T20:43:23.254Z,59.16
2023-04-14T20:45:53.207Z,58.91
2023-04-14T20:48:21.484Z,58.80
2023-04-14T20:50:50.581Z,59.22
2023-04-14T20:53:21.998Z,59.15
2023-04-14T20:55:51.036Z,59.31
2023-04-14T20:58:19.221Z,59.27
2023-04-14T21:00:47.176Z,58.97
2023-04-14T21:03:17.188Z,59.39
2023-04-14T21:05:46.274Z,59.59
2023-04-14T21:08:14.383Z,59.89
2023-04-14T21:11:14.563Z,59.64
2023-04-14T21:15:26.839Z,59.39
2023-04-14T21:16:19.149Z,59.24
2023-04-14T21:18:48.479Z,59.53
2023-04-14T21:21:16.766Z,59.01
2023-04-14T21:23:45.042Z,58.64
2023-04-14T21:26:13.321Z,58.72
2023-04-14T21:28:41.787Z,59.28
2023-04-14T21:31:11.177Z,59.75
2023-04-14T21:33:41.598Z,60.16
2023-04-14T21:36:11.665Z,59.52
2023-04-14T21:38:40.150Z,60.31
2023-04-14T21:41:09.418Z,60.28
2023-04-14T21:43:39.530Z,59.95
2023-04-14T21:46:08.048Z,61.38
2023-04-14T21:48:36.087Z,60.03
2023-04-14T21:51:05.000Z,59.87
2023-04-14T21:53:34.701Z,59.72
2023-04-14T21:56:10.137Z,59.45
2023-04-14T21:58:40.308Z,60.02
2023-04-14T22:01:09.585Z,59.70
2023-04-14T22:03:40.425Z,60.20
2023-04-14T22:06:09.963Z,59.81
2023-04-14T22:08:41.223Z,60.20
2023-04-14T22:11:09.287Z,59.90
2023-04-14T22:13:37.499Z,60.86
2023-04-14T22:16:06.430Z,60.02
2023-04-14T22:18:35.811Z,59.93
2023-04-14T22:21:04.828Z,60.49
2023-04-14T22:23:33.511Z,61.13
2023-04-14T22:26:03.583Z,60.88
2023-04-14T22:28:31.709Z,60.97
2023-04-14T22:31:00.010Z,60.60
2023-04-14T22:33:28.005Z,61.20
2023-04-14T22:35:56.276Z,60.79
2023-04-14T22:38:24.581Z,62.34
2023-04-14T22:40:52.939Z,60.84
2023-04-14T22:43:22.312Z,60.54
2023-04-14T22:45:51.023Z,60.26
2023-04-14T22:48:19.088Z,60.06
2023-04-14T22:50:47.046Z,61.52
2023-04-14T22:53:15.704Z,60.50
2023-04-14T22:55:44.119Z,60.37
2023-04-14T22:58:16.554Z,62.31
2023-04-14T23:00:46.540Z,60.39
2023-04-14T23:03:15.531Z,60.89
2023-04-14T23:05:44.671Z,60.75
2023-04-14T23:08:12.930Z,61.58
2023-04-14T23:10:40.964Z,62.41
2023-04-14T23:13:09.404Z,62.24
2023-04-14T23:15:37.608Z,61.95
2023-04-14T23:18:07.039Z,61.25
2023-04-14T23:20:35.042Z,62.81
2023-04-14T23:23:10.955Z,63.01
2023-04-14T23:25:39.344Z,62.55
2023-04-14T23:28:08.323Z,61.62
2023-04-14T23:30:36.932Z,61.64
2023-04-14T23:33:05.173Z,61.47
2023-04-14T23:35:35.888Z,61.00
2023-04-14T23:38:04.073Z,61.48
2023-04-14T23:40:33.400Z,61.78
2023-04-14T23:43:05.064Z,61.70
2023-04-14T23:45:37.105Z,62.92
2023-04-14T23:48:05.973Z,62.59
2023-04-14T23:50:59.189Z,62.67
2023-04-14T23:53:24.037Z,62.79
2023-04-14T23:55:52.677Z,62.22
2023-04-14T23:58:26.558Z,62.68
